Time;durP1;ratioP1;P1;durP2;ratioP2;P2;SDS_P1;SDS_P2;PMS_P1;PMS_P2;Temp;Humidity;BMP_temperature;BMP_pressure;BME280_temperature;BME280_humidity;BME280_pressure;Samples;Min_cycle;Max_cycle;Signal;HPM_P1;HPM_P2
2021/03/09 00:01:17;;;;;;;;;;;;;;;;;;;;;
2021/03/09 00:04:28;;;;;;;;;;;;;;;;;;;;;
2021/03/09 00:08:33;;;;;;;;;;;;;;;;;;;;;
2021/03/09 00:10:45;;;;;;;46.50;22.87;;;8.80;80.80;;;;;;6089916;23;20158;-93
2021/03/09 00:18:09;;;;;;;;;;;;;;;;;;;;;
2021/03/09 00:32:32;;;;;;;36.30;18.43;;;8.60;83.30;;;;;;6083579;23;20158;-93
2021/03/09 00:36:17;;;;;;;;;;;;;;;;;;;;;
2021/03/09 00:39:47;;;;;;;;;;;;;;;;;;;;;
2021/03/09 00:42:41;;;;;;;;;;;;;;;;;;;;;
2021/03/09 00:49:23;;;;;;;37.13;19.43;;;7.90;89.60;;;;;;5977239;24;20240;-93
2021/03/09 00:52:40;;;;;;;;;;;;;;;;;;;;;
2021/03/09 00:56:08;;;;;;;37.50;18.97;;;7.90;90.20;;;;;;5977679;23;20401;-94
2021/03/09 00:59:36;;;;;;;;;;;;;;;;;;;;;
2021/03/09 04:30:19;;;;;;;;;;;;;;;;;;;;;
2021/03/09 04:37:40;;;;;;;;;;;;;;;;;;;;;
2021/03/09 04:48:13;;;;;;;;;;;;;;;;;;;;;
2021/03/09 04:58:30;;;;;;;;;;;;;;;;;;;;;
2021/03/09 05:06:03;;;;;;;46.07;22.57;;;6.90;99.90;;;;;;5802493;24;20189;-92
2021/03/09 05:13:05;;;;;;;54.83;30.17;;;7.00;99.90;;;;;;5880698;24;20191;-93
2021/03/09 05:16:28;;;;;;;;;;;;;;;;;;;;;
2021/03/09 05:27:29;;;;;;;;;;;;;;;;;;;;;
2021/03/09 05:31:23;;;;;;;48.43;23.23;;;7.00;99.90;;;;;;5922517;23;20239;-93
2021/03/09 05:41:21;;;;;;;55.40;24.80;;;7.10;99.90;;;;;;6154149;23;20199;-93
2021/03/09 05:54:09;;;;;;;48.73;24.17;;;6.90;99.90;;;;;;5950466;23;20165;-93
2021/03/09 05:57:19;;;;;;;;;;;;;;;;;;;;;
2021/03/09 06:00:34;;;;;;;49.70;23.40;;;7.10;99.90;;;;;;6016440;23;20218;-93
2021/03/09 06:03:56;;;;;;;;;;;;;;;;;;;;;
2021/03/09 06:07:04;;;;;;;50.27;24.27;;;7.20;99.90;;;;;;5949942;24;21078;-93
2021/03/09 06:10:15;;;;;;;45.67;23.33;;;7.20;99.90;;;;;;5945878;24;20244;-94
2021/03/09 06:12:48;;;;;;;55.00;26.33;;;7.30;99.90;;;;;;5923837;24;20200;-93
2021/03/09 06:15:53;;;;;;;47.83;24.00;;;7.30;99.90;;;;;;6000740;23;20223;-92
2021/03/09 06:18:29;;;;;;;48.77;25.00;;;7.30;99.90;;;;;;6053736;23;20161;-92
2021/03/09 06:21:11;;;;;;;50.30;25.87;;;7.20;99.90;;;;;;6063802;23;20230;-92
2021/03/09 06:23:38;;;;;;;49.80;25.70;;;7.00;99.90;;;;;;6063512;23;20174;-90
2021/03/09 06:26:40;;;;;;;53.97;26.87;;;7.00;99.90;;;;;;6063797;23;20213;-91
2021/03/09 06:29:05;;;;;;;54.50;24.30;;;6.90;99.90;;;;;;6190187;23;20162;-92
2021/03/09 06:31:31;;;;;;;50.70;25.87;;;6.90;99.90;;;;;;6059425;23;20159;-90
2021/03/09 06:34:27;;;;;;;48.80;26.07;;;6.90;99.90;;;;;;6064508;23;20181;-92
2021/03/09 06:37:21;;;;;;;50.80;26.37;;;6.80;99.90;;;;;;6194409;23;20449;-91
2021/03/09 06:39:54;;;;;;;50.30;25.03;;;6.90;99.90;;;;;;6068350;23;20205;-91
2021/03/09 06:42:36;;;;;;;54.80;25.30;;;7.00;99.90;;;;;;6068232;23;20152;-93
2021/03/09 06:45:13;;;;;;;53.90;25.70;;;7.10;99.90;;;;;;6070397;23;20230;-93
2021/03/09 06:47:47;;;;;;;53.57;25.70;;;7.10;99.90;;;;;;6068434;23;20455;-92
2021/03/09 06:50:34;;;;;;;58.20;26.80;;;7.20;99.90;;;;;;6065191;23;20154;-91
2021/03/09 06:53:02;;;;;;;53.47;25.67;;;7.20;99.90;;;;;;6065348;23;20584;-91
2021/03/09 06:55:33;;;;;;;55.00;26.43;;;7.30;99.90;;;;;;6066223;23;20148;-92
2021/03/09 06:58:40;;;;;;;51.50;26.33;;;7.30;99.90;;;;;;6065501;23;20230;-94
2021/03/09 07:01:17;;;;;;;53.77;26.67;;;7.20;99.90;;;;;;6064245;23;20179;-94
2021/03/09 07:04:14;;;;;;;53.10;26.70;;;7.30;99.90;;;;;;6052989;23;20166;-93
2021/03/09 07:06:52;;;;;;;56.90;25.90;;;7.30;99.90;;;;;;6064045;23;20190;-91
2021/03/09 07:09:20;;;;;;;55.63;27.80;;;7.30;99.90;;;;;;6064953;23;20182;-92
2021/03/09 07:11:49;;;;;;;60.80;28.53;;;7.30;99.90;;;;;;6064682;23;20574;-91
2021/03/09 07:14:16;;;;;;;55.37;27.10;;;7.40;99.90;;;;;;6064664;23;20483;-92
2021/03/09 07:16:48;;;;;;;56.87;27.77;;;7.40;99.90;;;;;;6064503;23;20148;-94
2021/03/09 07:19:22;;;;;;;55.63;26.97;;;7.30;99.90;;;;;;6063720;23;20234;-89
2021/03/09 07:21:49;;;;;;;60.77;29.60;;;7.40;99.90;;;;;;6063957;23;20179;-89
2021/03/09 07:24:18;;;;;;;55.47;28.10;;;7.40;99.90;;;;;;6063426;23;20236;-89
2021/03/09 07:26:45;;;;;;;66.47;28.87;;;7.30;99.90;;;;;;6064022;23;20147;-89
2021/03/09 07:29:14;;;;;;;59.63;27.87;;;7.20;99.90;;;;;;6064973;23;20195;-88
2021/03/09 07:31:40;;;;;;;57.57;28.90;;;7.00;99.90;;;;;;6062134;23;20147;-91
2021/03/09 07:34:09;;;;;;;57.80;28.67;;;7.10;99.90;;;;;;6062349;23;20162;-89
2021/03/09 07:36:35;;;;;;;58.27;27.03;;;7.10;99.90;;;;;;6062616;23;20154;-90
2021/03/09 07:39:02;;;;;;;53.07;27.60;;;7.20;99.90;;;;;;6065205;23;20214;-88
2021/03/09 07:41:28;;;;;;;51.43;27.73;;;7.30;99.90;;;;;;6065568;23;20615;-88
2021/03/09 07:43:54;;;;;;;52.07;26.67;;;7.50;99.90;;;;;;6065448;23;20159;-90
2021/03/09 07:46:21;;;;;;;61.77;29.10;;;7.60;99.90;;;;;;6064511;23;20174;-87
2021/03/09 07:48:51;;;;;;;63.97;29.57;;;7.70;99.90;;;;;;6065028;23;20231;-90
2021/03/09 07:51:18;;;;;;;58.93;29.17;;;7.60;99.90;;;;;;6064302;23;20679;-89
2021/03/09 07:54:09;;;;;;;60.20;27.77;;;7.50;99.90;;;;;;6065189;23;20144;-88
2021/03/09 07:56:34;;;;;;;54.33;27.90;;;7.50;99.90;;;;;;6063994;23;20529;-88
2021/03/09 07:59:08;;;;;;;61.10;27.77;;;7.70;99.90;;;;;;6063632;23;20186;-89
2021/03/09 08:01:48;;;;;;;54.40;28.47;;;7.80;99.90;;;;;;6065044;23;20162;-89
2021/03/09 08:04:13;;;;;;;60.27;30.27;;;7.90;99.90;;;;;;6066173;23;20148;-89
2021/03/09 08:06:43;;;;;;;59.37;28.63;;;8.10;99.90;;;;;;6065286;23;20182;-90
2021/03/09 08:09:35;;;;;;;61.13;30.70;;;8.00;99.90;;;;;;6068903;23;20178;-89
2021/03/09 08:12:01;;;;;;;57.20;28.80;;;8.00;99.90;;;;;;6074569;23;20190;-91
2021/03/09 08:14:27;;;;;;;54.13;29.90;;;8.10;99.90;;;;;;6073871;23;20233;-90
2021/03/09 08:16:53;;;;;;;52.90;27.63;;;8.10;99.90;;;;;;6071622;23;20209;-90
2021/03/09 08:19:25;;;;;;;65.47;29.77;;;8.10;99.90;;;;;;6065631;23;20195;-91
2021/03/09 08:21:57;;;;;;;57.17;29.57;;;7.90;99.90;;;;;;6068624;23;20671;-90
2021/03/09 08:24:41;;;;;;;53.70;27.53;;;8.00;99.90;;;;;;6067660;23;20487;-93
2021/03/09 08:27:32;;;;;;;54.43;27.33;;;7.90;99.90;;;;;;6066056;23;20423;-91
2021/03/09 08:30:29;;;;;;;59.87;29.43;;;7.90;99.90;;;;;;6064971;23;20576;-93
2021/03/09 08:33:24;;;;;;;61.83;27.90;;;7.90;99.90;;;;;;6070980;23;20679;-90
2021/03/09 08:35:49;;;;;;;62.53;29.60;;;7.90;99.90;;;;;;6068400;23;20579;-89
2021/03/09 08:38:16;;;;;;;62.77;31.17;;;8.00;99.90;;;;;;6070256;23;20175;-89
2021/03/09 08:41:03;;;;;;;65.43;32.87;;;8.00;99.90;;;;;;6068758;23;20305;-90
2021/03/09 08:43:30;;;;;;;55.97;29.23;;;8.00;99.90;;;;;;6068667;23;20203;-89
2021/03/09 08:45:59;;;;;;;162.70;73.13;;;8.20;99.90;;;;;;6070376;23;20203;-89
2021/03/09 08:48:44;;;;;;;51.20;28.00;;;8.10;99.90;;;;;;6071083;23;20165;-89
2021/03/09 08:51:41;;;;;;;54.33;27.43;;;8.10;99.90;;;;;;6068983;23;20237;-90
2021/03/09 08:54:25;;;;;;;57.77;28.70;;;8.00;99.90;;;;;;6073858;23;20549;-90
2021/03/09 08:56:56;;;;;;;61.00;32.43;;;8.00;99.90;;;;;;6069494;23;20151;-90
2021/03/09 08:59:27;;;;;;;76.30;42.10;;;7.80;99.90;;;;;;6070743;23;20186;-90
2021/03/09 09:01:53;;;;;;;62.17;31.13;;;7.70;99.90;;;;;;6069721;23;20151;-91
2021/03/09 16:55:07;;;;;;;62.50;35.67;;;10.00;99.90;;;;;;6075240;23;20195;31
